Nye, Montana
Current Conditions -  °F | °C
As of 5:53 PM on Monday 20 Oct 2014 (Local Time) from KLVM Reporting Station
Clear Clear  
Wind Chill: 72°   Ceiling: Unl
Heat Index: 72°   Visibility: 10mi
Dew Point: 30°   Wind: 12mph
Humidity: 21%   Direction: 210°SSW
Pressure: 29.85"   Gusts: NA
Location:  45.45°N, 109.81°W
Report Text: KLVM 202353Z AUTO 21010KT 10SM CLR 22/M01 A2985 RMK AO2 SLP085 T02221011 10256 20217 56011
Loading
Personal Weather Stations






























Interactive Weather Map
Tropical Storm Tracking
New forecast layout! Learn more

10-Day Weather Forecast

Advertisements
Track Severe Weather on mobile